Mapleton, Oregon
Current Conditions -  °F | °C
As of 9:05 AM on Tuesday 21 Oct 2014 (Local Time) from KEUG Reporting Station
Broken Clouds Broken Clouds  
Wind Chill: 54°   Ceiling: 3000
Heat Index: 54°   Visibility: 10mi
Dew Point: 48°   Wind: 8mph
Humidity: 80%   Direction: 170°S
Pressure: 30.03"   Gusts: NA
Location:  44.03°N, 123.86°W
Report Text: KEUG 211605Z 17007KT 10SM BKN030 BKN035 BKN120 12/09 A3003 RMK AO2 T01220089
Loading
Personal Weather Stations






























Interactive Weather Map
Tropical Storm Tracking
New forecast layout! Learn more

10-Day Weather Forecast

Advertisements
Track Severe Weather on mobile